sensor_id;sensor_type;location;lat;lon;timestamp;temperature;humidity
30308;DHT22;17114;52.314;8.910;2024-02-04T00:02:15;9.00;99.90
30308;DHT22;17114;52.314;8.910;2024-02-04T00:04:42;9.00;99.90
30308;DHT22;17114;52.314;8.910;2024-02-04T00:07:10;9.00;99.90
30308;DHT22;17114;52.314;8.910;2024-02-04T00:09:37;9.00;99.90
30308;DHT22;17114;52.314;8.910;2024-02-04T00:12:07;9.00;99.90
30308;DHT22;17114;52.314;8.910;2024-02-04T00:14:34;8.90;99.90
30308;DHT22;17114;52.314;8.910;2024-02-04T00:17:02;8.90;99.90
30308;DHT22;17114;52.314;8.910;2024-02-04T00:19:30;8.90;99.90
30308;DHT22;17114;52.314;8.910;2024-02-04T00:21:58;8.90;99.90
30308;DHT22;17114;52.314;8.910;2024-02-04T00:24:26;8.90;99.90
30308;DHT22;17114;52.314;8.910;2024-02-04T00:26:53;8.90;99.90
30308;DHT22;17114;52.314;8.910;2024-02-04T00:29:20;8.90;99.90
30308;DHT22;17114;52.314;8.910;2024-02-04T00:31:48;8.90;99.90
30308;DHT22;17114;52.314;8.910;2024-02-04T00:34:15;8.80;99.90
30308;DHT22;17114;52.314;8.910;2024-02-04T00:36:47;8.80;99.90
30308;DHT22;17114;52.314;8.910;2024-02-04T00:39:15;8.70;99.90
30308;DHT22;17114;52.314;8.910;2024-02-04T00:41:42;8.70;99.90
30308;DHT22;17114;52.314;8.910;2024-02-04T00:44:09;8.70;99.90
30308;DHT22;17114;52.314;8.910;2024-02-04T00:46:36;8.70;99.90
30308;DHT22;17114;52.314;8.910;2024-02-04T00:49:03;8.70;99.90
30308;DHT22;17114;52.314;8.910;2024-02-04T00:51:30;8.80;99.90
30308;DHT22;17114;52.314;8.910;2024-02-04T00:53:59;8.80;99.90
30308;DHT22;17114;52.314;8.910;2024-02-04T00:56:27;8.80;99.90
30308;DHT22;17114;52.314;8.910;2024-02-04T00:58:56;8.90;99.90
30308;DHT22;17114;52.314;8.910;2024-02-04T01:01:23;8.90;99.90
30308;DHT22;17114;52.314;8.910;2024-02-04T01:03:51;8.90;99.90
30308;DHT22;17114;52.314;8.910;2024-02-04T01:06:18;9.00;99.90
30308;DHT22;17114;52.314;8.910;2024-02-04T01:08:45;9.00;99.90
30308;DHT22;17114;52.314;8.910;2024-02-04T01:11:12;9.00;99.90
30308;DHT22;17114;52.314;8.910;2024-02-04T01:13:39;9.10;99.90
30308;DHT22;17114;52.314;8.910;2024-02-04T01:16:06;9.00;99.90
30308;DHT22;17114;52.314;8.910;2024-02-04T01:18:33;9.10;99.90
30308;DHT22;17114;52.314;8.910;2024-02-04T01:21:01;9.10;99.90
30308;DHT22;17114;52.314;8.910;2024-02-04T01:23:28;9.10;99.90
30308;DHT22;17114;52.314;8.910;2024-02-04T01:25:55;9.10;99.90
30308;DHT22;17114;52.314;8.910;2024-02-04T01:28:23;9.10;99.90
30308;DHT22;17114;52.314;8.910;2024-02-04T01:30:50;9.10;99.90
30308;DHT22;17114;52.314;8.910;2024-02-04T01:33:17;9.10;99.90
30308;DHT22;17114;52.314;8.910;2024-02-04T01:35:45;9.10;99.90
30308;DHT22;17114;52.314;8.910;2024-02-04T01:38:12;9.10;99.90
30308;DHT22;17114;52.314;8.910;2024-02-04T01:40:39;9.10;99.90
30308;DHT22;17114;52.314;8.910;2024-02-04T01:43:06;9.10;99.90
30308;DHT22;17114;52.314;8.910;2024-02-04T01:45:33;9.10;99.90
30308;DHT22;17114;52.314;8.910;2024-02-04T01:48:00;9.10;99.90
30308;DHT22;17114;52.314;8.910;2024-02-04T01:50:28;9.10;99.90
30308;DHT22;17114;52.314;8.910;2024-02-04T01:52:55;9.10;99.90
30308;DHT22;17114;52.314;8.910;2024-02-04T01:55:22;9.10;99.90
30308;DHT22;17114;52.314;8.910;2024-02-04T01:57:49;9.10;99.90
30308;DHT22;17114;52.314;8.910;2024-02-04T02:00:17;9.10;99.90
30308;DHT22;17114;52.314;8.910;2024-02-04T02:02:46;9.10;99.90
30308;DHT22;17114;52.314;8.910;2024-02-04T02:05:13;9.10;99.90
30308;DHT22;17114;52.314;8.910;2024-02-04T02:07:41;9.10;99.90
30308;DHT22;17114;52.314;8.910;2024-02-04T02:10:09;9.10;99.90
30308;DHT22;17114;52.314;8.910;2024-02-04T02:12:47;9.10;99.90
30308;DHT22;17114;52.314;8.910;2024-02-04T02:15:20;9.10;99.90
30308;DHT22;17114;52.314;8.910;2024-02-04T02:20:23;9.10;99.90
30308;DHT22;17114;52.314;8.910;2024-02-04T02:23:22;9.10;99.90
30308;DHT22;17114;52.314;8.910;2024-02-04T02:25:49;9.10;99.90
30308;DHT22;17114;52.314;8.910;2024-02-04T02:28:18;9.00;99.90
30308;DHT22;17114;52.314;8.910;2024-02-04T02:30:45;9.00;99.90
30308;DHT22;17114;52.314;8.910;2024-02-04T02:33:12;9.00;99.90
30308;DHT22;17114;52.314;8.910;2024-02-04T02:35:39;9.00;99.90
30308;DHT22;17114;52.314;8.910;2024-02-04T02:38:25;9.00;99.90
30308;DHT22;17114;52.314;8.910;2024-02-04T02:41:04;9.00;99.90
30308;DHT22;17114;52.314;8.910;2024-02-04T02:43:35;9.00;99.90
30308;DHT22;17114;52.314;8.910;2024-02-04T02:46:07;9.00;99.90
30308;DHT22;17114;52.314;8.910;2024-02-04T02:48:35;9.00;99.90
30308;DHT22;17114;52.314;8.910;2024-02-04T02:51:02;9.00;99.90
30308;DHT22;17114;52.314;8.910;2024-02-04T02:53:30;9.00;99.90
30308;DHT22;17114;52.314;8.910;2024-02-04T02:55:57;9.00;99.90
30308;DHT22;17114;52.314;8.910;2024-02-04T02:58:24;9.00;99.90
30308;DHT22;17114;52.314;8.910;2024-02-04T03:00:51;9.00;99.90
30308;DHT22;17114;52.314;8.910;2024-02-04T03:03:18;9.00;99.90
30308;DHT22;17114;52.314;8.910;2024-02-04T03:05:45;9.00;99.90
30308;DHT22;17114;52.314;8.910;2024-02-04T03:08:12;9.00;99.90
30308;DHT22;17114;52.314;8.910;2024-02-04T03:10:39;9.00;99.90
30308;DHT22;17114;52.314;8.910;2024-02-04T03:13:06;8.90;99.90
30308;DHT22;17114;52.314;8.910;2024-02-04T03:15:33;8.90;99.90
30308;DHT22;17114;52.314;8.910;2024-02-04T03:18:00;8.80;99.90
30308;DHT22;17114;52.314;8.910;2024-02-04T03:20:28;8.90;99.90
30308;DHT22;17114;52.314;8.910;2024-02-04T03:22:55;8.90;99.90
30308;DHT22;17114;52.314;8.910;2024-02-04T03:25:22;8.90;99.90
30308;DHT22;17114;52.314;8.910;2024-02-04T03:27:53;8.90;99.90
30308;DHT22;17114;52.314;8.910;2024-02-04T03:30:20;8.90;99.90
30308;DHT22;17114;52.314;8.910;2024-02-04T03:32:47;8.90;99.90
30308;DHT22;17114;52.314;8.910;2024-02-04T03:35:14;8.90;99.90
30308;DHT22;17114;52.314;8.910;2024-02-04T03:37:41;8.90;99.90
30308;DHT22;17114;52.314;8.910;2024-02-04T03:40:09;8.90;99.90
30308;DHT22;17114;52.314;8.910;2024-02-04T03:42:36;8.90;99.90
30308;DHT22;17114;52.314;8.910;2024-02-04T03:45:04;8.90;99.90
30308;DHT22;17114;52.314;8.910;2024-02-04T03:47:32;8.90;99.90
30308;DHT22;17114;52.314;8.910;2024-02-04T03:50:00;8.90;99.90
30308;DHT22;17114;52.314;8.910;2024-02-04T03:52:27;8.90;99.90
30308;DHT22;17114;52.314;8.910;2024-02-04T03:54:54;8.80;99.90
30308;DHT22;17114;52.314;8.910;2024-02-04T03:57:21;8.80;99.90
30308;DHT22;17114;52.314;8.910;2024-02-04T03:59:48;8.80;99.90
30308;DHT22;17114;52.314;8.910;2024-02-04T04:02:15;8.70;99.90
30308;DHT22;17114;52.314;8.910;2024-02-04T04:04:42;8.70;99.90
30308;DHT22;17114;52.314;8.910;2024-02-04T04:07:14;8.70;99.90
30308;DHT22;17114;52.314;8.910;2024-02-04T04:09:41;8.70;99.90
30308;DHT22;17114;52.314;8.910;2024-02-04T04:12:09;8.70;99.90
30308;DHT22;17114;52.314;8.910;2024-02-04T04:14:36;8.80;99.90
30308;DHT22;17114;52.314;8.910;2024-02-04T04:17:03;8.80;99.90
30308;DHT22;17114;52.314;8.910;2024-02-04T04:19:30;8.80;99.90
30308;DHT22;17114;52.314;8.910;2024-02-04T04:22:01;8.80;99.90
30308;DHT22;17114;52.314;8.910;2024-02-04T04:24:28;8.80;99.90
30308;DHT22;17114;52.314;8.910;2024-02-04T04:26:55;8.80;99.90
30308;DHT22;17114;52.314;8.910;2024-02-04T04:29:22;8.80;99.90
30308;DHT22;17114;52.314;8.910;2024-02-04T04:31:49;8.80;99.90
30308;DHT22;17114;52.314;8.910;2024-02-04T04:34:16;8.90;99.90
30308;DHT22;17114;52.314;8.910;2024-02-04T04:36:45;8.80;99.90
30308;DHT22;17114;52.314;8.910;2024-02-04T04:39:13;8.80;99.90
30308;DHT22;17114;52.314;8.910;2024-02-04T04:41:43;8.80;99.90
30308;DHT22;17114;52.314;8.910;2024-02-04T04:44:10;8.80;99.90
30308;DHT22;17114;52.314;8.910;2024-02-04T04:46:40;8.70;99.90
30308;DHT22;17114;52.314;8.910;2024-02-04T04:49:07;8.70;99.90
30308;DHT22;17114;52.314;8.910;2024-02-04T04:51:35;8.70;99.90
30308;DHT22;17114;52.314;8.910;2024-02-04T04:54:02;8.70;99.90
30308;DHT22;17114;52.314;8.910;2024-02-04T04:56:30;8.60;99.90
30308;DHT22;17114;52.314;8.910;2024-02-04T04:58:57;8.60;99.90
30308;DHT22;17114;52.314;8.910;2024-02-04T05:01:25;8.60;99.90
30308;DHT22;17114;52.314;8.910;2024-02-04T05:03:52;8.60;99.90
30308;DHT22;17114;52.314;8.910;2024-02-04T05:06:19;8.60;99.90
30308;DHT22;17114;52.314;8.910;2024-02-04T05:08:46;8.60;99.90
30308;DHT22;17114;52.314;8.910;2024-02-04T05:11:13;8.60;99.90
30308;DHT22;17114;52.314;8.910;2024-02-04T05:13:40;8.60;99.90
30308;DHT22;17114;52.314;8.910;2024-02-04T05:16:14;8.60;99.90
30308;DHT22;17114;52.314;8.910;2024-02-04T05:18:41;8.70;99.90
30308;DHT22;17114;52.314;8.910;2024-02-04T05:21:08;8.70;99.90
30308;DHT22;17114;52.314;8.910;2024-02-04T05:23:36;8.70;99.90
30308;DHT22;17114;52.314;8.910;2024-02-04T05:26:04;8.70;99.90
30308;DHT22;17114;52.314;8.910;2024-02-04T05:28:32;8.80;99.90
30308;DHT22;17114;52.314;8.910;2024-02-04T05:31:01;8.80;99.90
30308;DHT22;17114;52.314;8.910;2024-02-04T05:33:29;8.90;99.90
30308;DHT22;17114;52.314;8.910;2024-02-04T05:35:57;8.90;99.90
30308;DHT22;17114;52.314;8.910;2024-02-04T05:38:24;8.90;99.90
30308;DHT22;17114;52.314;8.910;2024-02-04T05:40:51;8.90;99.90
30308;DHT22;17114;52.314;8.910;2024-02-04T05:43:18;8.90;99.90
30308;DHT22;17114;52.314;8.910;2024-02-04T05:45:45;8.90;99.90
30308;DHT22;17114;52.314;8.910;2024-02-04T05:48:12;8.90;99.90
30308;DHT22;17114;52.314;8.910;2024-02-04T05:50:40;8.90;99.90
30308;DHT22;17114;52.314;8.910;2024-02-04T05:53:07;8.90;99.90
30308;DHT22;17114;52.314;8.910;2024-02-04T05:55:35;8.80;99.90
30308;DHT22;17114;52.314;8.910;2024-02-04T05:58:02;8.80;99.90
30308;DHT22;17114;52.314;8.910;2024-02-04T06:00:29;8.80;99.90
30308;DHT22;17114;52.314;8.910;2024-02-04T06:02:56;8.80;99.90
30308;DHT22;17114;52.314;8.910;2024-02-04T06:05:23;8.80;99.90
30308;DHT22;17114;52.314;8.910;2024-02-04T06:07:50;8.80;99.90
30308;DHT22;17114;52.314;8.910;2024-02-04T06:10:17;8.80;99.90
30308;DHT22;17114;52.314;8.910;2024-02-04T06:12:45;8.70;99.90
30308;DHT22;17114;52.314;8.910;2024-02-04T06:15:13;8.80;99.90
30308;DHT22;17114;52.314;8.910;2024-02-04T06:17:40;8.80;99.90
30308;DHT22;17114;52.314;8.910;2024-02-04T06:20:08;8.80;99.90
30308;DHT22;17114;52.314;8.910;2024-02-04T06:22:36;8.70;99.90
30308;DHT22;17114;52.314;8.910;2024-02-04T06:25:04;8.70;99.90
30308;DHT22;17114;52.314;8.910;2024-02-04T06:27:31;8.70;99.90
30308;DHT22;17114;52.314;8.910;2024-02-04T06:29:59;8.70;99.90
30308;DHT22;17114;52.314;8.910;2024-02-04T06:32:26;8.70;99.90
30308;DHT22;17114;52.314;8.910;2024-02-04T06:34:53;8.70;99.90
30308;DHT22;17114;52.314;8.910;2024-02-04T06:37:22;8.60;99.90
30308;DHT22;17114;52.314;8.910;2024-02-04T06:39:51;8.70;99.90
30308;DHT22;17114;52.314;8.910;2024-02-04T06:42:18;8.70;99.90
30308;DHT22;17114;52.314;8.910;2024-02-04T06:44:45;8.70;99.90
30308;DHT22;17114;52.314;8.910;2024-02-04T06:47:12;8.70;99.90
30308;DHT22;17114;52.314;8.910;2024-02-04T06:49:44;8.70;99.90
30308;DHT22;17114;52.314;8.910;2024-02-04T06:52:13;8.70;99.90
30308;DHT22;17114;52.314;8.910;2024-02-04T06:54:40;8.70;99.90
30308;DHT22;17114;52.314;8.910;2024-02-04T06:57:08;8.70;99.90
30308;DHT22;17114;52.314;8.910;2024-02-04T06:59:34;8.70;99.90
30308;DHT22;17114;52.314;8.910;2024-02-04T07:02:02;8.60;99.90
30308;DHT22;17114;52.314;8.910;2024-02-04T07:04:29;8.70;99.90
30308;DHT22;17114;52.314;8.910;2024-02-04T07:06:56;8.70;99.90
30308;DHT22;17114;52.314;8.910;2024-02-04T07:09:23;8.70;99.90
30308;DHT22;17114;52.314;8.910;2024-02-04T07:11:50;8.60;99.90
30308;DHT22;17114;52.314;8.910;2024-02-04T07:14:17;8.70;99.90
30308;DHT22;17114;52.314;8.910;2024-02-04T07:16:44;8.70;99.90
30308;DHT22;17114;52.314;8.910;2024-02-04T07:19:11;8.70;99.90
30308;DHT22;17114;52.314;8.910;2024-02-04T07:21:38;8.80;99.90
30308;DHT22;17114;52.314;8.910;2024-02-04T07:24:05;8.70;99.90
30308;DHT22;17114;52.314;8.910;2024-02-04T07:26:33;8.70;99.90
30308;DHT22;17114;52.314;8.910;2024-02-04T07:29:00;8.70;99.90
30308;DHT22;17114;52.314;8.910;2024-02-04T07:31:28;8.80;99.90
30308;DHT22;17114;52.314;8.910;2024-02-04T07:33:55;8.80;99.90
30308;DHT22;17114;52.314;8.910;2024-02-04T07:36:22;8.80;99.90
30308;DHT22;17114;52.314;8.910;2024-02-04T07:38:50;8.80;99.90
30308;DHT22;17114;52.314;8.910;2024-02-04T07:41:21;8.80;99.90
30308;DHT22;17114;52.314;8.910;2024-02-04T07:43:49;8.80;99.90
30308;DHT22;17114;52.314;8.910;2024-02-04T07:46:16;8.70;99.90
30308;DHT22;17114;52.314;8.910;2024-02-04T07:48:43;8.70;99.90
30308;DHT22;17114;52.314;8.910;2024-02-04T07:51:11;8.70;99.90
30308;DHT22;17114;52.314;8.910;2024-02-04T07:53:38;8.70;99.90
30308;DHT22;17114;52.314;8.910;2024-02-04T07:56:08;8.70;99.90
30308;DHT22;17114;52.314;8.910;2024-02-04T07:58:37;8.70;99.90
30308;DHT22;17114;52.314;8.910;2024-02-04T08:01:08;8.70;99.90
30308;DHT22;17114;52.314;8.910;2024-02-04T08:03:35;8.70;99.90
30308;DHT22;17114;52.314;8.910;2024-02-04T08:06:04;8.70;99.90
30308;DHT22;17114;52.314;8.910;2024-02-04T08:08:31;8.70;99.90
30308;DHT22;17114;52.314;8.910;2024-02-04T08:11:00;8.70;99.90
30308;DHT22;17114;52.314;8.910;2024-02-04T08:13:32;8.70;99.90
30308;DHT22;17114;52.314;8.910;2024-02-04T08:15:59;8.70;99.90
30308;DHT22;17114;52.314;8.910;2024-02-04T08:18:26;8.70;99.90
30308;DHT22;17114;52.314;8.910;2024-02-04T08:20:55;8.70;99.90
30308;DHT22;17114;52.314;8.910;2024-02-04T08:23:22;8.70;99.90
30308;DHT22;17114;52.314;8.910;2024-02-04T08:25:51;8.70;99.90
30308;DHT22;17114;52.314;8.910;2024-02-04T08:28:18;8.70;99.90
30308;DHT22;17114;52.314;8.910;2024-02-04T08:30:45;8.70;99.90
30308;DHT22;17114;52.314;8.910;2024-02-04T08:33:13;8.80;99.90
30308;DHT22;17114;52.314;8.910;2024-02-04T08:35:40;8.70;99.90
30308;DHT22;17114;52.314;8.910;2024-02-04T08:38:07;8.80;99.90
30308;DHT22;17114;52.314;8.910;2024-02-04T08:40:34;8.80;99.90
30308;DHT22;17114;52.314;8.910;2024-02-04T08:43:01;8.70;99.90
30308;DHT22;17114;52.314;8.910;2024-02-04T08:45:30;8.70;99.90
30308;DHT22;17114;52.314;8.910;2024-02-04T08:47:57;8.70;99.90
30308;DHT22;17114;52.314;8.910;2024-02-04T08:50:24;8.70;99.90
30308;DHT22;17114;52.314;8.910;2024-02-04T08:52:53;8.70;99.90
30308;DHT22;17114;52.314;8.910;2024-02-04T08:55:20;8.70;99.90
30308;DHT22;17114;52.314;8.910;2024-02-04T08:57:48;8.70;99.90
30308;DHT22;17114;52.314;8.910;2024-02-04T09:00:16;8.60;99.90
30308;DHT22;17114;52.314;8.910;2024-02-04T09:02:44;8.60;99.90
30308;DHT22;17114;52.314;8.910;2024-02-04T09:05:13;8.60;99.90
30308;DHT22;17114;52.314;8.910;2024-02-04T09:07:44;8.60;99.90
30308;DHT22;17114;52.314;8.910;2024-02-04T09:10:12;8.60;99.90
30308;DHT22;17114;52.314;8.910;2024-02-04T09:12:40;8.60;99.90
30308;DHT22;17114;52.314;8.910;2024-02-04T09:15:07;8.60;99.90
30308;DHT22;17114;52.314;8.910;2024-02-04T09:17:35;8.60;99.90
30308;DHT22;17114;52.314;8.910;2024-02-04T09:20:02;8.60;99.90
30308;DHT22;17114;52.314;8.910;2024-02-04T09:22:31;8.60;99.90
30308;DHT22;17114;52.314;8.910;2024-02-04T09:24:59;8.70;99.90
30308;DHT22;17114;52.314;8.910;2024-02-04T09:27:27;8.70;99.90
30308;DHT22;17114;52.314;8.910;2024-02-04T09:29:56;8.70;99.90
30308;DHT22;17114;52.314;8.910;2024-02-04T09:32:22;8.70;99.90
30308;DHT22;17114;52.314;8.910;2024-02-04T09:34:50;8.80;99.90
30308;DHT22;17114;52.314;8.910;2024-02-04T09:37:18;8.80;99.90
30308;DHT22;17114;52.314;8.910;2024-02-04T09:39:46;8.90;99.90
30308;DHT22;17114;52.314;8.910;2024-02-04T09:42:19;8.90;99.90
30308;DHT22;17114;52.314;8.910;2024-02-04T09:44:51;9.00;99.90
30308;DHT22;17114;52.314;8.910;2024-02-04T09:47:20;9.00;99.90
30308;DHT22;17114;52.314;8.910;2024-02-04T09:49:47;9.00;99.90
30308;DHT22;17114;52.314;8.910;2024-02-04T09:52:18;9.10;99.90
30308;DHT22;17114;52.314;8.910;2024-02-04T09:54:50;9.10;99.90
30308;DHT22;17114;52.314;8.910;2024-02-04T09:57:22;9.10;99.90
30308;DHT22;17114;52.314;8.910;2024-02-04T09:59:49;9.20;99.90
30308;DHT22;17114;52.314;8.910;2024-02-04T10:02:17;9.20;99.90
30308;DHT22;17114;52.314;8.910;2024-02-04T10:04:48;9.30;99.90
30308;DHT22;17114;52.314;8.910;2024-02-04T10:07:16;9.30;99.90
30308;DHT22;17114;52.314;8.910;2024-02-04T10:09:46;9.40;99.90
30308;DHT22;17114;52.314;8.910;2024-02-04T10:12:13;9.30;99.90
30308;DHT22;17114;52.314;8.910;2024-02-04T10:14:41;9.40;99.90
30308;DHT22;17114;52.314;8.910;2024-02-04T10:17:09;9.40;99.90
30308;DHT22;17114;52.314;8.910;2024-02-04T10:19:37;9.50;99.90
30308;DHT22;17114;52.314;8.910;2024-02-04T10:22:05;9.50;99.90
30308;DHT22;17114;52.314;8.910;2024-02-04T10:24:33;9.60;99.90
30308;DHT22;17114;52.314;8.910;2024-02-04T10:27:00;9.60;99.90
30308;DHT22;17114;52.314;8.910;2024-02-04T10:29:27;9.60;99.90
30308;DHT22;17114;52.314;8.910;2024-02-04T10:31:55;9.60;99.90
30308;DHT22;17114;52.314;8.910;2024-02-04T10:34:27;9.70;99.90
30308;DHT22;17114;52.314;8.910;2024-02-04T10:36:57;9.70;99.90
30308;DHT22;17114;52.314;8.910;2024-02-04T10:39:24;9.80;99.90
30308;DHT22;17114;52.314;8.910;2024-02-04T10:41:52;9.90;99.90
30308;DHT22;17114;52.314;8.910;2024-02-04T10:44:23;9.90;99.90
30308;DHT22;17114;52.314;8.910;2024-02-04T10:46:52;9.90;99.90
30308;DHT22;17114;52.314;8.910;2024-02-04T10:49:22;10.00;99.90
30308;DHT22;17114;52.314;8.910;2024-02-04T10:51:55;10.00;99.90
30308;DHT22;17114;52.314;8.910;2024-02-04T10:54:25;10.00;99.90
30308;DHT22;17114;52.314;8.910;2024-02-04T10:57:05;10.00;99.90
30308;DHT22;17114;52.314;8.910;2024-02-04T10:59:35;10.00;99.90
30308;DHT22;17114;52.314;8.910;2024-02-04T11:02:05;9.90;99.90
30308;DHT22;17114;52.314;8.910;2024-02-04T11:04:36;9.80;99.90
30308;DHT22;17114;52.314;8.910;2024-02-04T11:07:05;9.80;99.90
30308;DHT22;17114;52.314;8.910;2024-02-04T11:09:34;9.80;99.90
30308;DHT22;17114;52.314;8.910;2024-02-04T11:12:06;9.70;99.90
30308;DHT22;17114;52.314;8.910;2024-02-04T11:14:39;9.70;99.90
30308;DHT22;17114;52.314;8.910;2024-02-04T11:25:49;9.60;99.90
30308;DHT22;17114;52.314;8.910;2024-02-04T11:28:24;9.60;99.90
30308;DHT22;17114;52.314;8.910;2024-02-04T11:30:53;9.60;99.90
30308;DHT22;17114;52.314;8.910;2024-02-04T11:33:21;9.60;99.90
30308;DHT22;17114;52.314;8.910;2024-02-04T11:36:04;9.50;99.90
30308;DHT22;17114;52.314;8.910;2024-02-04T11:38:36;9.40;99.90
30308;DHT22;17114;52.314;8.910;2024-02-04T11:41:05;9.40;99.90
30308;DHT22;17114;52.314;8.910;2024-02-04T11:43:34;9.30;99.90
30308;DHT22;17114;52.314;8.910;2024-02-04T11:46:04;9.30;99.90
30308;DHT22;17114;52.314;8.910;2024-02-04T11:48:34;9.30;99.90
30308;DHT22;17114;52.314;8.910;2024-02-04T11:51:04;9.30;99.90
30308;DHT22;17114;52.314;8.910;2024-02-04T11:53:33;9.30;99.90
30308;DHT22;17114;52.314;8.910;2024-02-04T11:56:03;9.40;99.90
30308;DHT22;17114;52.314;8.910;2024-02-04T11:58:31;9.40;99.90
30308;DHT22;17114;52.314;8.910;2024-02-04T12:01:01;9.40;99.90
30308;DHT22;17114;52.314;8.910;2024-02-04T12:03:31;9.40;99.90
30308;DHT22;17114;52.314;8.910;2024-02-04T12:05:59;9.50;99.90
30308;DHT22;17114;52.314;8.910;2024-02-04T12:08:29;9.50;99.90
30308;DHT22;17114;52.314;8.910;2024-02-04T12:10:56;9.50;99.90
30308;DHT22;17114;52.314;8.910;2024-02-04T12:13:25;9.50;99.90
30308;DHT22;17114;52.314;8.910;2024-02-04T12:15:53;9.40;99.90
30308;DHT22;17114;52.314;8.910;2024-02-04T12:18:20;9.40;99.90
30308;DHT22;17114;52.314;8.910;2024-02-04T12:20:48;9.40;99.90
30308;DHT22;17114;52.314;8.910;2024-02-04T12:23:17;9.40;99.90
30308;DHT22;17114;52.314;8.910;2024-02-04T12:25:49;9.30;99.90
30308;DHT22;17114;52.314;8.910;2024-02-04T12:28:17;9.30;99.90
30308;DHT22;17114;52.314;8.910;2024-02-04T12:30:54;9.30;99.90
30308;DHT22;17114;52.314;8.910;2024-02-04T12:33:26;9.30;99.90
30308;DHT22;17114;52.314;8.910;2024-02-04T12:35:53;9.30;99.90
30308;DHT22;17114;52.314;8.910;2024-02-04T12:38:23;9.30;99.90
30308;DHT22;17114;52.314;8.910;2024-02-04T12:40:51;9.30;99.90
30308;DHT22;17114;52.314;8.910;2024-02-04T12:43:19;9.20;99.90
30308;DHT22;17114;52.314;8.910;2024-02-04T12:45:46;9.30;99.90
30308;DHT22;17114;52.314;8.910;2024-02-04T12:48:15;9.20;99.90
30308;DHT22;17114;52.314;8.910;2024-02-04T12:50:46;9.20;99.90
30308;DHT22;17114;52.314;8.910;2024-02-04T12:53:14;9.30;99.90
30308;DHT22;17114;52.314;8.910;2024-02-04T12:55:42;9.30;99.90
30308;DHT22;17114;52.314;8.910;2024-02-04T12:58:13;9.40;99.90
30308;DHT22;17114;52.314;8.910;2024-02-04T13:00:44;9.40;99.90
30308;DHT22;17114;52.314;8.910;2024-02-04T13:03:15;9.40;99.90
30308;DHT22;17114;52.314;8.910;2024-02-04T13:05:43;9.40;99.90
30308;DHT22;17114;52.314;8.910;2024-02-04T13:08:13;9.40;99.90
30308;DHT22;17114;52.314;8.910;2024-02-04T13:10:40;9.40;99.90
30308;DHT22;17114;52.314;8.910;2024-02-04T13:13:11;9.40;99.90
30308;DHT22;17114;52.314;8.910;2024-02-04T13:15:42;9.40;99.90
30308;DHT22;17114;52.314;8.910;2024-02-04T13:18:12;9.30;99.90
30308;DHT22;17114;52.314;8.910;2024-02-04T13:20:45;9.40;99.90
30308;DHT22;17114;52.314;8.910;2024-02-04T13:23:13;9.40;99.90
30308;DHT22;17114;52.314;8.910;2024-02-04T13:25:42;9.40;99.90
30308;DHT22;17114;52.314;8.910;2024-02-04T13:28:12;9.40;99.90
30308;DHT22;17114;52.314;8.910;2024-02-04T13:30:40;9.40;99.90
30308;DHT22;17114;52.314;8.910;2024-02-04T13:33:08;9.30;99.90
30308;DHT22;17114;52.314;8.910;2024-02-04T13:35:36;9.40;99.90
30308;DHT22;17114;52.314;8.910;2024-02-04T13:38:04;9.50;99.90
30308;DHT22;17114;52.314;8.910;2024-02-04T13:40:32;9.50;99.90
30308;DHT22;17114;52.314;8.910;2024-02-04T13:43:06;9.50;99.90
30308;DHT22;17114;52.314;8.910;2024-02-04T13:45:34;9.50;99.90
30308;DHT22;17114;52.314;8.910;2024-02-04T13:48:02;9.40;99.90
30308;DHT22;17114;52.314;8.910;2024-02-04T13:50:35;9.50;99.90
30308;DHT22;17114;52.314;8.910;2024-02-04T13:53:04;9.50;99.90
30308;DHT22;17114;52.314;8.910;2024-02-04T13:55:31;9.50;99.90
30308;DHT22;17114;52.314;8.910;2024-02-04T13:57:58;9.50;99.90
30308;DHT22;17114;52.314;8.910;2024-02-04T14:00:27;9.60;99.90
30308;DHT22;17114;52.314;8.910;2024-02-04T14:02:55;9.60;99.90
30308;DHT22;17114;52.314;8.910;2024-02-04T14:05:21;9.60;99.90
30308;DHT22;17114;52.314;8.910;2024-02-04T14:07:51;9.60;99.90
30308;DHT22;17114;52.314;8.910;2024-02-04T14:10:20;9.60;99.90
30308;DHT22;17114;52.314;8.910;2024-02-04T14:12:48;9.70;99.90
30308;DHT22;17114;52.314;8.910;2024-02-04T14:15:15;9.70;99.90
30308;DHT22;17114;52.314;8.910;2024-02-04T14:17:47;9.70;99.90
30308;DHT22;17114;52.314;8.910;2024-02-04T14:20:15;9.70;99.90
30308;DHT22;17114;52.314;8.910;2024-02-04T14:22:42;9.80;99.90
30308;DHT22;17114;52.314;8.910;2024-02-04T14:25:09;9.80;99.90
30308;DHT22;17114;52.314;8.910;2024-02-04T14:27:36;9.80;99.90
30308;DHT22;17114;52.314;8.910;2024-02-04T14:30:04;9.90;99.90
30308;DHT22;17114;52.314;8.910;2024-02-04T14:32:33;9.90;99.90
30308;DHT22;17114;52.314;8.910;2024-02-04T14:35:02;9.90;99.90
30308;DHT22;17114;52.314;8.910;2024-02-04T14:37:31;9.90;99.90
30308;DHT22;17114;52.314;8.910;2024-02-04T14:39:59;9.80;99.90
30308;DHT22;17114;52.314;8.910;2024-02-04T14:42:31;9.80;99.90
30308;DHT22;17114;52.314;8.910;2024-02-04T14:45:00;9.70;99.90
30308;DHT22;17114;52.314;8.910;2024-02-04T14:47:28;9.70;99.90
30308;DHT22;17114;52.314;8.910;2024-02-04T14:49:57;9.60;99.90
30308;DHT22;17114;52.314;8.910;2024-02-04T14:52:24;9.60;99.90
30308;DHT22;17114;52.314;8.910;2024-02-04T14:54:52;9.50;99.90
30308;DHT22;17114;52.314;8.910;2024-02-04T14:57:21;9.50;99.90
30308;DHT22;17114;52.314;8.910;2024-02-04T14:59:49;9.40;99.90
30308;DHT22;17114;52.314;8.910;2024-02-04T15:02:17;9.30;99.90
30308;DHT22;17114;52.314;8.910;2024-02-04T15:04:45;9.20;99.90
30308;DHT22;17114;52.314;8.910;2024-02-04T15:07:13;9.10;99.90
30308;DHT22;17114;52.314;8.910;2024-02-04T15:09:41;9.00;99.90
30308;DHT22;17114;52.314;8.910;2024-02-04T15:12:09;9.00;99.90
30308;DHT22;17114;52.314;8.910;2024-02-04T15:14:37;8.90;99.90
30308;DHT22;17114;52.314;8.910;2024-02-04T15:17:05;8.90;99.90
30308;DHT22;17114;52.314;8.910;2024-02-04T15:19:33;8.90;99.90
30308;DHT22;17114;52.314;8.910;2024-02-04T15:22:03;8.80;99.90
30308;DHT22;17114;52.314;8.910;2024-02-04T15:24:31;8.80;99.90
30308;DHT22;17114;52.314;8.910;2024-02-04T15:26:59;8.70;99.90
30308;DHT22;17114;52.314;8.910;2024-02-04T15:29:37;8.70;99.90
30308;DHT22;17114;52.314;8.910;2024-02-04T15:32:05;8.70;99.90
30308;DHT22;17114;52.314;8.910;2024-02-04T15:34:33;8.60;99.90
30308;DHT22;17114;52.314;8.910;2024-02-04T15:37:02;8.60;99.90
30308;DHT22;17114;52.314;8.910;2024-02-04T15:39:30;8.50;99.90
30308;DHT22;17114;52.314;8.910;2024-02-04T15:41:57;8.50;99.90
30308;DHT22;17114;52.314;8.910;2024-02-04T15:44:25;8.50;99.90
30308;DHT22;17114;52.314;8.910;2024-02-04T15:46:53;8.50;99.90
30308;DHT22;17114;52.314;8.910;2024-02-04T15:49:22;8.40;99.90
30308;DHT22;17114;52.314;8.910;2024-02-04T15:51:51;8.40;99.90
30308;DHT22;17114;52.314;8.910;2024-02-04T15:54:19;8.40;99.90
30308;DHT22;17114;52.314;8.910;2024-02-04T15:57:03;8.40;99.90
30308;DHT22;17114;52.314;8.910;2024-02-04T15:59:45;8.40;99.90
30308;DHT22;17114;52.314;8.910;2024-02-04T16:02:17;8.30;99.90
30308;DHT22;17114;52.314;8.910;2024-02-04T16:04:45;8.40;99.90